createdAt,value
2023-02-28T00:00:03.619Z,100873.63
2023-02-28T00:02:49.064Z,100862.38
2023-02-28T00:05:29.433Z,100859.63
2023-02-28T00:08:29.786Z,100865.31
2023-02-28T00:11:17.587Z,100859.47
2023-02-28T00:14:03.894Z,100861.34
2023-02-28T00:16:50.460Z,100864.75
2023-02-28T00:19:32.363Z,100859.66
2023-02-28T00:22:13.102Z,100861.25
2023-02-28T00:24:54.434Z,100867.16
2023-02-28T00:27:44.326Z,100864.53
2023-02-28T00:30:29.558Z,100872.28
2023-02-28T00:33:13.025Z,100874.13
2023-02-28T00:36:06.942Z,100881.59
2023-02-28T00:38:47.203Z,100874.56
2023-02-28T00:41:29.587Z,100882.59
2023-02-28T00:44:23.577Z,100878.59
2023-02-28T00:47:07.671Z,100876.78
2023-02-28T00:50:05.740Z,100876.59
2023-02-28T00:52:44.201Z,100881.41
2023-02-28T00:55:30.973Z,100882.50
2023-02-28T00:58:21.579Z,100892.25
2023-02-28T01:01:11.831Z,100886.00
2023-02-28T01:03:52.994Z,100879.84
2023-02-28T01:06:33.380Z,100890.84
2023-02-28T01:09:16.943Z,100891.56
2023-02-28T01:11:57.747Z,100894.84
2023-02-28T01:14:35.705Z,100887.97
2023-02-28T01:17:18.947Z,100886.38
2023-02-28T01:20:11.328Z,100886.03
2023-02-28T01:22:56.679Z,100890.84
2023-02-28T01:25:54.409Z,100892.28
2023-02-28T01:28:51.878Z,100891.78
2023-02-28T01:31:42.012Z,100888.41
2023-02-28T01:34:31.775Z,100888.19
2023-02-28T01:37:10.379Z,100890.72
2023-02-28T01:39:53.662Z,100890.47
2023-02-28T01:42:29.394Z,100893.88
2023-02-28T01:45:18.105Z,100889.97
2023-02-28T01:48:07.895Z,100888.72
2023-02-28T01:50:54.698Z,100898.34
2023-02-28T01:54:02.404Z,100890.53
2023-02-28T01:56:54.193Z,100889.22
2023-02-28T01:59:56.369Z,100887.91
2023-02-28T02:02:40.696Z,100892.38
2023-02-28T02:05:18.821Z,100887.81
2023-02-28T02:08:13.507Z,100889.25
2023-02-28T02:10:55.186Z,100896.34
2023-02-28T02:14:08.805Z,100893.72
2023-02-28T02:17:05.771Z,100885.78
2023-02-28T02:20:02.801Z,100897.25
2023-02-28T02:23:09.867Z,100891.44
2023-02-28T02:26:09.888Z,100901.31
2023-02-28T02:29:21.101Z,100891.88
2023-02-28T02:32:36.066Z,100882.00
2023-02-28T02:35:42.172Z,100893.59
2023-02-28T02:38:44.642Z,100888.91
2023-02-28T02:41:34.970Z,100877.59
2023-02-28T02:44:28.020Z,100880.59
2023-02-28T02:47:32.116Z,100879.16
2023-02-28T02:50:10.723Z,100880.69
2023-02-28T02:52:59.854Z,100876.72
2023-02-28T02:55:49.169Z,100888.28
2023-02-28T02:58:37.449Z,100877.69
2023-02-28T03:01:32.363Z,100879.63
2023-02-28T03:04:20.375Z,100884.47
2023-02-28T03:07:07.440Z,100880.75
2023-02-28T03:10:00.190Z,100877.38
2023-02-28T03:13:04.457Z,100888.63
2023-02-28T03:15:58.420Z,100884.63
2023-02-28T03:19:01.473Z,100891.38
2023-02-28T03:21:44.770Z,100881.50
2023-02-28T03:24:46.034Z,100882.09
2023-02-28T03:28:02.864Z,100887.03
2023-02-28T03:31:04.491Z,100894.41
2023-02-28T03:33:55.774Z,100892.84
2023-02-28T03:36:45.102Z,100901.53
2023-02-28T03:39:41.624Z,100899.94
2023-02-28T03:42:29.840Z,100907.19
2023-02-28T03:45:28.326Z,100902.47
2023-02-28T03:48:27.706Z,100895.00
2023-02-28T03:51:17.532Z,100890.91
2023-02-28T03:54:04.357Z,100900.78
2023-02-28T03:57:06.001Z,100893.28
2023-02-28T04:00:05.395Z,100891.34
2023-02-28T04:02:59.181Z,100898.16
2023-02-28T04:05:59.426Z,100897.31
2023-02-28T04:08:44.436Z,100896.09
2023-02-28T04:12:00.146Z,100893.06
2023-02-28T04:14:37.837Z,100895.13
2023-02-28T04:17:24.699Z,100888.97
2023-02-28T04:19:59.665Z,100892.09
2023-02-28T04:22:32.204Z,100889.94
2023-02-28T04:25:28.190Z,100887.41
2023-02-28T04:28:16.739Z,100878.72
2023-02-28T04:31:00.970Z,100883.91
2023-02-28T04:33:37.554Z,100876.28
2023-02-28T04:39:27.557Z,100869.75
2023-02-28T04:42:28.353Z,100871.72
2023-02-28T04:45:20.281Z,100870.00
2023-02-28T04:48:04.074Z,100873.16
2023-02-28T04:51:00.794Z,100871.84
2023-02-28T04:53:45.327Z,100873.41
2023-02-28T04:56:33.041Z,100873.41
2023-02-28T04:59:19.288Z,100878.22
2023-02-28T05:02:08.449Z,100874.00
2023-02-28T05:04:49.209Z,100876.31
2023-02-28T05:07:36.130Z,100874.59
2023-02-28T05:10:11.435Z,100876.78
2023-02-28T05:13:03.426Z,100878.72
2023-02-28T05:15:49.279Z,100874.00
2023-02-28T05:18:46.898Z,100877.38
2023-02-28T05:22:04.945Z,100878.94
2023-02-28T05:24:53.189Z,100876.91
2023-02-28T05:27:36.410Z,100876.28
2023-02-28T05:30:22.798Z,100880.03
2023-02-28T05:33:16.985Z,100879.03
2023-02-28T05:35:59.439Z,100888.81
2023-02-28T05:38:34.286Z,100896.56
2023-02-28T05:41:22.201Z,100893.19
2023-02-28T05:44:02.437Z,100900.19
2023-02-28T05:46:48.477Z,100905.13
2023-02-28T05:49:35.848Z,100903.09
2023-02-28T05:52:19.051Z,100909.81
2023-02-28T05:55:10.649Z,100905.50
2023-02-28T05:57:56.994Z,100912.03
2023-02-28T06:00:33.670Z,100921.91
2023-02-28T06:03:19.118Z,100919.75
2023-02-28T06:06:03.927Z,100915.41
2023-02-28T06:08:54.690Z,100929.16
2023-02-28T06:11:33.410Z,100910.09
2023-02-28T06:14:24.893Z,100920.81
2023-02-28T06:17:11.062Z,100916.72
2023-02-28T06:20:03.498Z,100923.56
2023-02-28T06:23:00.441Z,100925.00
2023-02-28T06:25:48.745Z,100923.19
2023-02-28T06:28:44.569Z,100923.81
2023-02-28T06:31:34.907Z,100923.03
2023-02-28T06:34:18.255Z,100926.31
2023-02-28T06:37:05.806Z,100928.81
2023-02-28T06:39:46.522Z,100932.53
2023-02-28T06:42:32.527Z,100927.38
2023-02-28T06:45:31.723Z,100938.03
2023-02-28T06:48:15.202Z,100936.97
2023-02-28T06:50:51.128Z,100939.50
2023-02-28T06:53:39.463Z,100935.47
2023-02-28T06:56:18.941Z,100937.66
2023-02-28T06:59:08.858Z,100939.59
2023-02-28T07:01:58.491Z,100945.31
2023-02-28T07:04:35.240Z,100939.94
2023-02-28T07:07:22.243Z,100938.03
2023-02-28T07:10:14.775Z,100940.88
2023-02-28T07:13:08.516Z,100946.63
2023-02-28T07:16:14.794Z,100955.50
2023-02-28T07:19:02.399Z,100954.19
2023-02-28T07:21:41.429Z,100951.59
2023-02-28T07:24:25.385Z,100958.00
2023-02-28T07:27:14.469Z,100962.34
2023-02-28T07:30:06.223Z,100960.28
2023-02-28T07:33:02.116Z,100961.56
2023-02-28T07:35:53.937Z,100962.28
2023-02-28T07:38:38.556Z,100962.06
2023-02-28T07:41:25.805Z,100963.13
2023-02-28T07:44:10.039Z,100973.66
2023-02-28T07:46:54.429Z,100975.84
2023-02-28T07:49:38.429Z,100969.97
2023-02-28T07:52:24.732Z,100986.13
2023-02-28T07:55:11.765Z,100974.88
2023-02-28T07:57:52.780Z,100976.00
2023-02-28T08:00:33.920Z,100968.44
2023-02-28T08:03:17.512Z,100973.63
2023-02-28T08:05:58.093Z,100973.38
2023-02-28T08:08:46.600Z,100971.44
2023-02-28T08:11:35.846Z,100971.72
2023-02-28T08:14:22.691Z,100965.13
2023-02-28T08:17:12.577Z,100960.63
2023-02-28T08:19:59.903Z,100966.06
2023-02-28T08:22:45.993Z,100967.03
2023-02-28T08:25:18.536Z,100965.47
2023-02-28T08:28:04.132Z,100972.78
2023-02-28T08:30:56.384Z,100974.00
2023-02-28T08:33:43.075Z,100980.50
2023-02-28T08:36:19.480Z,100972.19
2023-02-28T08:39:11.462Z,100977.47
2023-02-28T08:42:02.083Z,100976.53
2023-02-28T08:44:53.243Z,100974.03
2023-02-28T08:47:49.624Z,100982.72
2023-02-28T08:50:32.850Z,100975.41
2023-02-28T08:53:14.535Z,100975.34
2023-02-28T08:56:05.454Z,100971.53
2023-02-28T08:58:58.724Z,100971.28
2023-02-28T09:01:47.771Z,100976.81
2023-02-28T09:04:26.000Z,100972.38
2023-02-28T09:07:04.445Z,100974.91
2023-02-28T09:09:56.931Z,100975.69
2023-02-28T09:12:38.621Z,100969.00
2023-02-28T09:15:18.978Z,100974.53
2023-02-28T09:17:58.990Z,100969.28
2023-02-28T09:20:36.660Z,100963.44
2023-02-28T09:23:31.369Z,100969.38
2023-02-28T09:26:24.627Z,100968.09
2023-02-28T09:29:08.002Z,100965.41
2023-02-28T09:32:00.435Z,100960.50
2023-02-28T09:34:44.113Z,100967.06
2023-02-28T09:37:43.803Z,100976.88
2023-02-28T09:40:31.751Z,100977.91
2023-02-28T09:43:07.124Z,100973.34
2023-02-28T09:46:12.891Z,100976.50
2023-02-28T09:48:59.084Z,100976.88
2023-02-28T09:52:07.009Z,100974.25
2023-02-28T09:54:58.774Z,100982.72
2023-02-28T09:57:54.843Z,100984.78
2023-02-28T10:00:38.047Z,100985.19
2023-02-28T10:03:51.329Z,100980.19
2023-02-28T10:06:57.495Z,100976.88
2023-02-28T10:09:42.791Z,100966.09
2023-02-28T10:12:29.009Z,100969.13
2023-02-28T10:15:13.754Z,100966.91
2023-02-28T10:18:08.359Z,100972.72
2023-02-28T10:20:59.814Z,100957.28
2023-02-28T10:23:44.855Z,100960.66
2023-02-28T10:26:36.766Z,100953.75
2023-02-28T10:29:17.529Z,100960.72
2023-02-28T10:32:00.260Z,100953.13
2023-02-28T10:34:47.365Z,100950.28
2023-02-28T10:37:27.425Z,100945.91
2023-02-28T10:40:28.495Z,100943.44
2023-02-28T10:43:22.408Z,100933.44
2023-02-28T10:46:27.047Z,100927.63
2023-02-28T10:49:14.272Z,100932.03
2023-02-28T10:54:42.375Z,100928.28
2023-02-28T10:57:34.409Z,100927.44
2023-02-28T11:00:31.022Z,100919.50
2023-02-28T11:03:34.760Z,100921.56
2023-02-28T11:06:29.802Z,100917.34
2023-02-28T11:09:33.849Z,100908.97
2023-02-28T11:12:28.688Z,100905.94
2023-02-28T11:15:33.441Z,100911.16
2023-02-28T11:18:28.352Z,100906.13
2023-02-28T11:21:12.617Z,100905.94
2023-02-28T11:24:02.417Z,100908.63
2023-02-28T11:27:14.281Z,100907.47
2023-02-28T11:29:53.688Z,100909.47
2023-02-28T11:32:40.213Z,100907.97
2023-02-28T11:35:53.425Z,100908.09
2023-02-28T11:38:40.102Z,100896.56
2023-02-28T11:41:41.142Z,100903.56
2023-02-28T11:44:46.970Z,100903.66
2023-02-28T11:48:01.767Z,100890.25
2023-02-28T11:51:14.109Z,100888.63
2023-02-28T11:54:25.347Z,100891.41
2023-02-28T11:57:27.974Z,100889.31
2023-02-28T12:00:25.183Z,100890.59
2023-02-28T12:03:29.757Z,100879.50
2023-02-28T12:06:44.647Z,100879.91
2023-02-28T12:09:28.261Z,100875.66
2023-02-28T12:12:40.013Z,100875.94
2023-02-28T12:15:59.419Z,100871.34
2023-02-28T12:18:57.534Z,100865.41
2023-02-28T12:21:59.917Z,100865.63
2023-02-28T12:25:08.249Z,100858.28
2023-02-28T12:27:53.189Z,100857.38
2023-02-28T12:31:15.100Z,100856.47
2023-02-28T12:33:54.425Z,100855.22
2023-02-28T12:36:38.312Z,100844.81
2023-02-28T12:39:41.706Z,100848.72
2023-02-28T12:42:39.182Z,100849.19
2023-02-28T12:45:28.387Z,100843.28
2023-02-28T12:48:26.985Z,100842.47
2023-02-28T12:51:20.601Z,100845.16
2023-02-28T12:54:40.393Z,100844.13
2023-02-28T12:57:37.367Z,100840.59
2023-02-28T13:00:33.391Z,100840.38
2023-02-28T13:03:38.699Z,100842.03
2023-02-28T13:06:45.479Z,100831.06
2023-02-28T13:09:44.563Z,100828.22
2023-02-28T13:12:41.790Z,100825.69
2023-02-28T13:15:36.399Z,100826.72
2023-02-28T13:18:54.418Z,100822.19
2023-02-28T13:21:45.629Z,100827.00
2023-02-28T13:24:52.381Z,100822.56
2023-02-28T13:27:50.358Z,100814.00
2023-02-28T13:31:05.023Z,100827.66
2023-02-28T13:34:08.414Z,100827.50
2023-02-28T13:36:57.338Z,100817.50
2023-02-28T13:40:24.501Z,100811.78
2023-02-28T13:43:16.702Z,100811.13
2023-02-28T13:46:20.763Z,100809.72
2023-02-28T13:49:19.600Z,100809.00
2023-02-28T13:52:20.414Z,100805.81
2023-02-28T13:55:25.997Z,100805.63
2023-02-28T13:58:26.029Z,100803.31
2023-02-28T14:01:56.544Z,100802.66
2023-02-28T14:05:31.010Z,100791.91
2023-02-28T14:08:30.209Z,100794.16
2023-02-28T14:11:35.156Z,100787.78
2023-02-28T14:14:33.620Z,100788.09
2023-02-28T14:17:20.890Z,100787.59
2023-02-28T14:20:01.552Z,100790.59
2023-02-28T14:22:40.589Z,100793.25
2023-02-28T14:25:38.031Z,100798.38
2023-02-28T14:28:28.992Z,100786.75
2023-02-28T14:31:30.551Z,100773.53
2023-02-28T14:34:50.476Z,100780.25
2023-02-28T14:37:28.543Z,100776.44
2023-02-28T14:40:10.887Z,100772.06
2023-02-28T14:43:04.258Z,100768.94
2023-02-28T14:45:59.598Z,100769.69
2023-02-28T14:48:45.397Z,100775.44
2023-02-28T14:51:33.258Z,100781.78
2023-02-28T14:54:27.553Z,100780.09
2023-02-28T14:57:18.239Z,100779.06
2023-02-28T15:00:08.430Z,100787.19
2023-02-28T15:02:50.287Z,100786.44
2023-02-28T15:05:40.849Z,100790.31
2023-02-28T15:08:22.615Z,100792.34
2023-02-28T15:11:22.828Z,100791.72
2023-02-28T15:14:33.239Z,100794.91
2023-02-28T15:17:41.343Z,100792.41
2023-02-28T15:20:23.620Z,100791.75
2023-02-28T15:23:06.189Z,100790.94
2023-02-28T15:25:54.438Z,100793.63
2023-02-28T15:28:35.029Z,100797.97
2023-02-28T15:31:39.038Z,100799.16
2023-02-28T15:34:51.132Z,100800.19
2023-02-28T15:37:55.442Z,100789.59
2023-02-28T15:41:03.454Z,100791.41
2023-02-28T15:43:49.397Z,100787.75
2023-02-28T15:46:34.731Z,100791.41
2023-02-28T15:49:25.081Z,100783.69
2023-02-28T15:52:15.516Z,100779.00
2023-02-28T15:55:13.692Z,100787.69
2023-02-28T15:57:59.782Z,100783.63
2023-02-28T16:00:50.586Z,100783.34
2023-02-28T16:03:52.002Z,100781.94
2023-02-28T16:06:52.372Z,100782.94
2023-02-28T16:09:36.996Z,100792.97
2023-02-28T16:12:28.223Z,100786.97
2023-02-28T16:15:27.150Z,100787.88
2023-02-28T16:18:09.406Z,100792.25
2023-02-28T16:21:01.592Z,100793.56
2023-02-28T16:23:47.405Z,100793.88
2023-02-28T16:26:31.355Z,100794.88
2023-02-28T16:29:22.321Z,100789.19
2023-02-28T16:32:30.718Z,100794.50
2023-02-28T16:35:25.227Z,100798.13
2023-02-28T16:38:03.382Z,100797.66
2023-02-28T16:40:44.908Z,100799.06
2023-02-28T16:43:40.191Z,100804.75
2023-02-28T16:46:16.319Z,100807.06
2023-02-28T16:49:05.875Z,100811.75
2023-02-28T16:51:44.134Z,100808.13
2023-02-28T16:54:29.513Z,100814.50
2023-02-28T16:57:17.509Z,100815.75
2023-02-28T17:00:09.061Z,100820.06
2023-02-28T17:03:08.262Z,100820.06
2023-02-28T17:05:56.072Z,100819.28
2023-02-28T17:08:40.044Z,100817.09
2023-02-28T17:11:34.678Z,100825.28
2023-02-28T17:14:13.377Z,100828.84
2023-02-28T17:17:00.614Z,100828.84
2023-02-28T17:22:46.705Z,100829.84
2023-02-28T17:25:34.457Z,100829.47
2023-02-28T17:28:17.945Z,100832.81
2023-02-28T17:31:17.642Z,100830.09
2023-02-28T17:34:03.979Z,100835.13
2023-02-28T17:36:50.109Z,100832.06
2023-02-28T17:39:37.422Z,100836.44
2023-02-28T17:42:29.059Z,100836.09
2023-02-28T17:45:13.195Z,100835.38
2023-02-28T17:48:10.080Z,100832.03
2023-02-28T17:51:08.280Z,100826.59
2023-02-28T17:54:08.515Z,100832.59
2023-02-28T17:57:02.250Z,100835.56
2023-02-28T17:59:48.384Z,100830.91
2023-02-28T18:02:43.498Z,100830.53
2023-02-28T18:05:31.228Z,100821.03
2023-02-28T18:11:21.143Z,100836.44
2023-02-28T18:14:03.357Z,100830.41
2023-02-28T18:16:54.504Z,100835.28
2023-02-28T18:19:46.161Z,100842.41
2023-02-28T18:22:33.247Z,100838.03
2023-02-28T18:25:26.343Z,100838.25
2023-02-28T18:28:15.459Z,100838.25
2023-02-28T18:31:14.965Z,100847.44
2023-02-28T18:34:14.706Z,100842.94
2023-02-28T18:37:02.843Z,100846.59
2023-02-28T18:39:53.050Z,100848.59
2023-02-28T18:42:39.311Z,100846.59
2023-02-28T18:45:29.041Z,100857.31
2023-02-28T18:48:10.990Z,100846.75
2023-02-28T18:50:47.354Z,100846.91
2023-02-28T18:53:32.261Z,100842.16
2023-02-28T18:56:16.072Z,100848.97
2023-02-28T18:58:51.249Z,100848.97
2023-02-28T19:01:46.774Z,100843.09
2023-02-28T19:04:33.745Z,100848.81
2023-02-28T19:07:20.620Z,100856.16
2023-02-28T19:10:03.083Z,100847.69
2023-02-28T19:13:06.444Z,100851.31
2023-02-28T19:15:57.673Z,100852.41
2023-02-28T19:18:46.587Z,100854.25
2023-02-28T19:21:35.499Z,100850.03
2023-02-28T19:24:26.223Z,100854.63
2023-02-28T19:27:10.455Z,100858.31
2023-02-28T19:29:59.388Z,100854.88
2023-02-28T19:33:05.129Z,100853.16
2023-02-28T19:36:00.105Z,100851.03
2023-02-28T19:38:54.337Z,100847.69
2023-02-28T19:41:32.807Z,100849.50
2023-02-28T19:44:29.219Z,100852.34
2023-02-28T19:47:24.471Z,100844.63
2023-02-28T19:50:05.683Z,100855.91
2023-02-28T19:52:53.445Z,100858.38
2023-02-28T19:55:40.119Z,100854.53
2023-02-28T19:58:23.104Z,100856.38
2023-02-28T20:01:16.965Z,100856.84
2023-02-28T20:04:12.043Z,100851.19
2023-02-28T20:06:59.020Z,100852.81
2023-02-28T20:09:50.892Z,100850.09
2023-02-28T20:12:42.853Z,100857.53
2023-02-28T20:15:27.175Z,100850.16
2023-02-28T20:18:23.427Z,100845.38
2023-02-28T20:21:10.025Z,100846.53
2023-02-28T20:23:56.209Z,100847.34
2023-02-28T20:26:45.319Z,100844.69
2023-02-28T20:29:34.579Z,100845.91
2023-02-28T20:32:39.846Z,100849.88
2023-02-28T20:35:17.178Z,100851.31
2023-02-28T20:38:09.364Z,100841.16
2023-02-28T20:41:10.433Z,100844.34
2023-02-28T20:43:58.578Z,100844.81
2023-02-28T20:46:46.420Z,100845.94
2023-02-28T20:49:44.567Z,100844.22
2023-02-28T20:52:27.964Z,100842.75
2023-02-28T20:55:18.137Z,100842.25
2023-02-28T20:58:11.614Z,100841.84
2023-02-28T21:01:07.809Z,100843.16
2023-02-28T21:04:03.285Z,100836.63
2023-02-28T21:06:57.710Z,100838.16
2023-02-28T21:09:45.386Z,100829.22
2023-02-28T21:12:19.354Z,100824.41
2023-02-28T21:15:10.237Z,100831.59
2023-02-28T21:17:50.877Z,100823.56
2023-02-28T21:20:36.539Z,100829.00
2023-02-28T21:23:29.534Z,100828.63
2023-02-28T21:26:07.758Z,100829.88
2023-02-28T21:28:49.412Z,100833.09
2023-02-28T21:31:44.095Z,100828.44
2023-02-28T21:34:34.122Z,100827.00
2023-02-28T21:37:12.012Z,100829.03
2023-02-28T21:39:56.829Z,100821.09
2023-02-28T21:42:44.352Z,100825.84
2023-02-28T21:45:25.005Z,100822.41
2023-02-28T21:48:04.149Z,100820.97
2023-02-28T21:51:00.173Z,100827.59
2023-02-28T21:53:44.363Z,100818.81
2023-02-28T21:56:37.214Z,100819.81
2023-02-28T21:59:19.672Z,100821.69
2023-02-28T22:02:03.460Z,100823.53
2023-02-28T22:04:50.245Z,100819.81
2023-02-28T22:07:40.489Z,100829.47
2023-02-28T22:10:31.294Z,100822.41
2023-02-28T22:13:24.353Z,100821.44
2023-02-28T22:16:19.649Z,100818.69
2023-02-28T22:19:07.667Z,100825.88
2023-02-28T22:22:06.583Z,100833.59
2023-02-28T22:24:57.365Z,100835.41
2023-02-28T22:27:44.408Z,100839.31
2023-02-28T22:30:34.503Z,100838.63
2023-02-28T22:33:21.522Z,100842.31
2023-02-28T22:36:11.201Z,100842.31
2023-02-28T22:39:02.267Z,100842.84
2023-02-28T22:41:41.385Z,100840.63
2023-02-28T22:44:40.850Z,100842.00
2023-02-28T22:47:28.720Z,100838.97
2023-02-28T22:50:19.692Z,100841.56
2023-02-28T22:53:06.651Z,100835.16
2023-02-28T22:56:00.334Z,100837.84
2023-02-28T22:58:58.758Z,100842.78
2023-02-28T23:01:45.059Z,100838.44
2023-02-28T23:04:36.165Z,100840.28
2023-02-28T23:07:21.330Z,100847.16
2023-02-28T23:10:16.697Z,100851.59
2023-02-28T23:12:57.221Z,100848.84
2023-02-28T23:15:42.807Z,100841.13
2023-02-28T23:18:25.337Z,100846.16
2023-02-28T23:21:21.141Z,100846.16
2023-02-28T23:24:06.984Z,100852.50
2023-02-28T23:26:55.583Z,100845.84
2023-02-28T23:29:55.302Z,100845.75
2023-02-28T23:32:48.122Z,100842.50
2023-02-28T23:35:36.030Z,100835.47
2023-02-28T23:38:19.993Z,100827.88
2023-02-28T23:41:19.304Z,100828.31
2023-02-28T23:44:07.785Z,100833.63
2023-02-28T23:46:58.327Z,100822.81
2023-02-28T23:50:02.402Z,100824.25
2023-02-28T23:52:35.263Z,100821.31
2023-02-28T23:55:18.722Z,100822.97
2023-02-28T23:58:12.847Z,100818.13
